Flint, MI (48552)

11:22 AM EDT on August 28, 2015 (GMT -0400)
Flint Twp / Dye Elementary | | Change Station
CLOSE
Current Station
Personal Weather Station
Location: Flint, MI
Elevation: 741 ft
Nearby Weather Stations

Elev 741 ft 43.01 °N, 83.76 °W | Updated 13 minutes ago

Clear
Clear
68.0 °F
Feels Like 68.0 °F
N
1.7
Wind Variable Wind from SSE

Today
High -- | Low -- °F
--% Chance of Precip.
Yesterday
High -- | Low -- °F
Precip. -- in
6:54 AM 8:16 PM
Waxing Gibbous, 98% visible
Pressure 30.21 in
Visibility 10.0 miles
Clouds Clear
Dew Point 58 °F
Humidity 71%
Rainfall 0.00 in
Snow Depth Not available.
UV 5 out of 12
Pollen 10.00 out of 12
Air Quality Not available.
Flu Activity Not available.
METAR KFNT 281453Z 18008KT 10SM CLR 20/14 A3021 RMK AO2 SLP229 T02000139 50003
Pressure 30.21 in
Visibility 10.0 miles
Clouds Clear
Dew Point 58 °F
Humidity 71%
Rainfall 0.00 in
Snow Depth Not available.
UV 5 out of 12
Pollen 10.00 out of 12
Air Quality Not available.
Flu Activity Not available.
METAR KFNT 281453Z 18008KT 10SM CLR 20/14 A3021 RMK AO2 SLP229 T02000139 50003

10-Day Weather Forecast

×

Almanac

Astronomy

Aug. 28, 2015 Rise Set
Actual Time
Civil Twilight
Nautical Twilight
Astronomical Twilight
Moon
Length of Visible Light
Length of Day
Tomorrow will be .
, % of the Moon is Illuminated

Today's Extremes

State Highs State Lows

Community

WunderPhotos

Upload Photos

1,850,395 photos uploaded!

WunderBlogs® & News

Nearby

Air Quality

  Air Quality AQ Index Pollutant
Not available.

Snow Depth

Station Depth Elevation

Earthquake Activity

City Distance Mag. Time & Date
Minimum magnitude displayed is 2.5.

Coastal Water Temperatures

Place Temperature

Stations

Nearby Weather Stations

Station Location Temp. Windchill Dew Point Humidity Wind Precip. Elev Updated Type